Time;durP1;ratioP1;P1;durP2;ratioP2;P2;SDS_P1;SDS_P2;PMS_P1;PMS_P2;Temp;Humidity;BMP_temperature;BMP_pressure;BME280_temperature;BME280_humidity;BME280_pressure;Samples;Min_cycle;Max_cycle;Signal;HPM_P1;HPM_P2
2022/09/25 00:01:02;;;;;;;9.90;9.00;;;;;;;-145.23;100.00;58621.06;4990354;28;20646;-52
2022/09/25 00:03:29;;;;;;;8.93;8.05;;;;;;;-145.23;100.00;58621.06;5004715;28;20229;-52
2022/09/25 00:06:02;;;;;;;8.60;7.72;;;;;;;-145.23;100.00;58621.06;5001642;28;20707;-52
2022/09/25 00:08:28;;;;;;;12.20;10.98;;;;;;;-145.23;100.00;58621.06;4988286;28;20977;-52
2022/09/25 00:10:55;;;;;;;11.82;10.48;;;;;;;-145.23;100.00;58621.06;4995679;28;20317;-51
2022/09/25 00:13:23;;;;;;;10.55;9.57;;;;;;;-145.23;100.00;58621.06;4996544;28;20313;-51
2022/09/25 00:15:51;;;;;;;9.52;8.73;;;;;;;-145.23;100.00;58621.06;5003081;28;20608;-51
2022/09/25 00:19:48;;;;;;;9.35;8.52;;;;;;;-145.23;100.00;58621.06;4991073;28;20517;-51
2022/09/25 00:21:06;;;;;;;9.32;8.43;;;;;;;-145.23;100.00;58621.06;4995069;28;20238;-51
2022/09/25 00:23:34;;;;;;;8.93;8.13;;;;;;;-145.23;100.00;58621.06;4993834;28;20304;-52
2022/09/25 00:26:01;;;;;;;8.63;7.82;;;;;;;-145.23;100.00;58621.06;5004629;28;20677;-50
2022/09/25 00:28:30;;;;;;;10.05;8.02;;;;;;;-145.23;100.00;58621.06;4997898;28;20448;-51
2022/09/25 00:30:57;;;;;;;8.05;7.28;;;;;;;-145.23;100.00;58621.06;5004597;28;20236;-53
2022/09/25 00:33:24;;;;;;;8.02;7.25;;;;;;;-145.23;100.00;58621.06;4991902;28;20233;-50
2022/09/25 00:35:50;;;;;;;8.77;8.02;;;;;;;-145.23;100.00;58621.06;4994947;28;20245;-51
2022/09/25 00:38:16;;;;;;;8.48;7.68;;;;;;;-145.23;100.00;58621.06;5011633;28;20236;-51
2022/09/25 00:40:43;;;;;;;8.23;6.55;;;;;;;-145.23;100.00;58621.06;5006287;28;20817;-51
2022/09/25 00:43:12;;;;;;;8.25;7.18;;;;;;;-145.23;100.00;58621.06;5000885;28;20241;-52
2022/09/25 00:45:40;;;;;;;7.50;6.70;;;;;;;-145.23;100.00;58621.06;4999504;28;20240;-51
2022/09/25 00:48:10;;;;;;;7.57;6.82;;;;;;;-145.23;100.00;58621.06;5001713;28;20763;-61
2022/09/25 00:50:39;;;;;;;6.82;6.22;;;;;;;-145.23;100.00;58621.06;4994693;28;20603;-50
2022/09/25 00:53:09;;;;;;;7.78;6.68;;;;;;;-145.23;100.00;58621.06;4994718;28;20237;-51
2022/09/25 00:55:36;;;;;;;6.45;5.95;;;;;;;-145.23;100.00;58621.06;4998399;28;20225;-51
2022/09/25 00:58:03;;;;;;;8.02;7.38;;;;;;;-145.23;100.00;58621.06;4995628;28;20237;-51
2022/09/25 01:00:31;;;;;;;5.93;5.43;;;;;;;-145.23;100.00;58621.06;4995273;28;20261;-51
2022/09/25 01:02:59;;;;;;;8.25;7.38;;;;;;;-145.23;100.00;58621.06;4993770;28;20610;-51
2022/09/25 01:05:28;;;;;;;7.45;6.75;;;;;;;-145.23;100.00;58621.06;4992232;28;20233;-51
2022/09/25 01:07:56;;;;;;;7.18;6.50;;;;;;;-145.23;100.00;58621.06;4995561;28;20242;-50
2022/09/25 01:10:22;;;;;;;7.97;5.85;;;;;;;-145.23;100.00;58621.06;4991767;28;20292;-52
2022/09/25 01:12:50;;;;;;;6.75;6.15;;;;;;;-145.23;100.00;58621.06;4996801;28;20715;-52
2022/09/25 01:15:19;;;;;;;5.80;5.32;;;;;;;-145.23;100.00;58621.06;5006692;28;20240;-51
2022/09/25 01:18:01;;;;;;;6.82;6.20;;;;;;;-145.23;100.00;58621.06;5009440;28;20234;-52
2022/09/25 01:20:40;;;;;;;7.18;6.55;;;;;;;-145.23;100.00;58621.06;5000059;28;20230;-51
2022/09/25 01:23:17;;;;;;;5.55;5.05;;;;;;;-145.23;100.00;58621.06;5012665;28;20263;-51
2022/09/25 01:25:56;;;;;;;6.78;6.18;;;;;;;-145.23;100.00;58621.06;5000354;28;20233;-53
2022/09/25 01:28:41;;;;;;;6.95;6.25;;;;;;;-145.23;100.00;58621.06;5007045;28;20243;-53
2022/09/25 01:31:12;;;;;;;7.05;6.35;;;;;;;-145.23;100.00;58621.06;4997869;28;20226;-53
2022/09/25 01:33:43;;;;;;;6.57;5.80;;;;;;;-145.23;100.00;58621.06;4994252;28;20767;-51
2022/09/25 01:36:15;;;;;;;6.38;5.78;;;;;;;-145.23;100.00;58621.06;4994773;28;20332;-52
2022/09/25 01:38:43;;;;;;;6.47;5.95;;;;;;;-145.23;100.00;58621.06;4999558;28;20236;-51
2022/09/25 01:41:12;;;;;;;6.93;6.10;;;;;;;-145.23;100.00;58621.06;4991299;28;20233;-52
2022/09/25 01:43:44;;;;;;;5.90;5.30;;;;;;;-145.23;100.00;58621.06;4997334;28;20252;-52
2022/09/25 01:46:15;;;;;;;7.00;6.13;;;;;;;-145.23;100.00;58621.06;4997104;28;20229;-54
2022/09/25 01:48:43;;;;;;;6.60;5.97;;;;;;;-145.23;100.00;58621.06;4992087;28;20525;-52
2022/09/25 01:51:14;;;;;;;6.68;6.00;;;;;;;-145.23;100.00;58621.06;5004286;28;20233;-53
2022/09/25 01:53:44;;;;;;;6.70;6.03;;;;;;;-145.23;100.00;58621.06;5014042;28;20757;-50
2022/09/25 01:56:16;;;;;;;7.22;6.63;;;;;;;-145.23;100.00;58621.06;4994223;28;20244;-52
2022/09/25 01:58:48;;;;;;;6.35;5.82;;;;;;;-145.23;100.00;58621.06;4991442;28;20664;-51
2022/09/25 02:01:21;;;;;;;5.85;5.35;;;;;;;-145.23;100.00;58621.06;4991029;28;20703;-51
2022/09/25 02:03:50;;;;;;;5.70;5.22;;;;;;;-145.23;100.00;58621.06;4996108;28;20234;-52
2022/09/25 02:06:19;;;;;;;7.28;6.25;;;;;;;-145.23;100.00;58621.06;5000895;28;20230;-52
2022/09/25 02:08:48;;;;;;;6.50;5.90;;;;;;;-145.23;100.00;58621.06;5005912;28;20330;-52
2022/09/25 02:11:15;;;;;;;5.80;5.30;;;;;;;-145.23;100.00;58621.06;4991140;28;20692;-53
2022/09/25 02:13:47;;;;;;;6.13;5.55;;;;;;;-145.23;100.00;58621.06;5000021;28;20267;-51
2022/09/25 02:16:16;;;;;;;6.90;6.30;;;;;;;-145.23;100.00;58621.06;4996534;28;20226;-51
2022/09/25 02:21:35;;;;;;;5.80;5.30;;;;;;;-145.23;100.00;58621.06;4998257;28;20239;-51
2022/09/25 02:24:07;;;;;;;6.10;5.45;;;;;;;-145.23;100.00;58621.06;4996925;28;20229;-51
2022/09/25 02:26:36;;;;;;;7.25;6.38;;;;;;;-145.23;100.00;58621.06;4994354;28;20233;-53
2022/09/25 02:29:04;;;;;;;5.93;5.53;;;;;;;-145.23;100.00;58621.06;4992350;28;20325;-51
2022/09/25 02:31:35;;;;;;;6.18;5.68;;;;;;;-145.23;100.00;58621.06;4996023;28;20312;-51
2022/09/25 02:34:03;;;;;;;7.00;6.30;;;;;;;-145.23;100.00;58621.06;5002675;28;20777;-53
2022/09/25 02:36:31;;;;;;;5.53;5.03;;;;;;;-145.23;100.00;58621.06;5010788;28;20237;-52
2022/09/25 02:38:57;;;;;;;7.40;6.70;;;;;;;-145.23;100.00;58621.06;4995318;28;20230;-52
2022/09/25 02:41:34;;;;;;;7.32;6.63;;;;;;;-145.23;100.00;58621.06;4997790;28;20317;-52
2022/09/25 02:44:14;;;;;;;6.63;6.03;;;;;;;-145.23;100.00;58621.06;4990454;28;20503;-50
2022/09/25 02:46:45;;;;;;;7.07;6.43;;;;;;;-145.23;100.00;58621.06;5004690;28;20240;-51
2022/09/25 02:49:17;;;;;;;6.15;5.55;;;;;;;-145.23;100.00;58621.06;5024017;28;20228;-52
2022/09/25 02:51:48;;;;;;;5.88;5.38;;;;;;;-145.23;100.00;58621.06;4998057;28;20238;-51
2022/09/25 02:54:19;;;;;;;6.80;6.20;;;;;;;-145.23;100.00;58621.06;5009072;28;20229;-51
2022/09/25 02:56:48;;;;;;;6.80;5.50;;;;;;;-145.23;100.00;58621.06;4990913;28;20260;-52
2022/09/25 02:59:19;;;;;;;6.13;5.63;;;;;;;-145.23;100.00;58621.06;4998717;28;20246;-51
2022/09/25 03:01:47;;;;;;;7.05;6.13;;;;;;;-145.23;100.00;58621.06;4999621;28;20225;-51
2022/09/25 03:04:14;;;;;;;5.95;5.45;;;;;;;-145.23;100.00;58621.06;5012527;28;20251;-50
2022/09/25 03:06:41;;;;;;;5.43;4.93;;;;;;;-145.23;100.00;58621.06;5000990;28;20243;-51
2022/09/25 03:09:08;;;;;;;6.50;5.90;;;;;;;-145.23;100.00;58621.06;5005705;28;20230;-51
2022/09/25 03:11:42;;;;;;;6.28;5.80;;;;;;;-145.23;100.00;58621.06;4989115;28;20237;-50
2022/09/25 03:14:08;;;;;;;6.30;5.75;;;;;;;-145.23;100.00;58621.06;5003639;28;20237;-51
2022/09/25 03:16:39;;;;;;;6.60;5.45;;;;;;;-145.23;100.00;58621.06;5006390;28;20234;-51
2022/09/25 03:19:06;;;;;;;5.32;4.93;;;;;;;-145.23;100.00;58621.06;5001676;28;20242;-51
2022/09/25 03:21:33;;;;;;;6.10;5.60;;;;;;;-145.23;100.00;58621.06;4989656;28;20237;-51
2022/09/25 03:23:59;;;;;;;5.88;4.75;;;;;;;-145.23;100.00;58621.06;4991132;28;20272;-52
2022/09/25 03:26:27;;;;;;;4.80;4.40;;;;;;;-145.23;100.00;58621.06;4985438;28;20734;-52
2022/09/25 03:28:54;;;;;;;6.13;5.45;;;;;;;-145.23;100.00;58621.06;4991665;28;20268;-53
2022/09/25 03:31:21;;;;;;;6.43;5.82;;;;;;;-145.23;100.00;58621.06;4996885;28;20745;-51
2022/09/25 03:33:49;;;;;;;5.50;4.75;;;;;;;-145.23;100.00;58621.06;4996878;28;20743;-51
2022/09/25 03:36:17;;;;;;;7.90;6.45;;;;;;;-145.23;100.00;58621.06;4990940;28;20244;-51
2022/09/25 03:38:45;;;;;;;6.60;6.00;;;;;;;-145.23;100.00;58621.06;4993464;28;20326;-53
2022/09/25 03:41:13;;;;;;;6.15;5.47;;;;;;;-145.23;100.00;58621.06;4989547;28;20746;-51
2022/09/25 03:43:42;;;;;;;5.95;5.45;;;;;;;-145.23;100.00;58621.06;4994608;28;20242;-52
2022/09/25 03:46:11;;;;;;;6.43;5.93;;;;;;;-145.23;100.00;58621.06;4994335;28;20782;-52
2022/09/25 03:48:38;;;;;;;7.05;6.10;;;;;;;-145.23;100.00;58621.06;5004163;28;20240;-52
2022/09/25 03:51:06;;;;;;;6.20;5.70;;;;;;;-145.23;100.00;58621.06;4993941;28;20779;-51
2022/09/25 03:53:33;;;;;;;6.07;5.57;;;;;;;-145.23;100.00;58621.06;4996386;28;20241;-52
2022/09/25 03:56:00;;;;;;;6.10;5.60;;;;;;;-145.23;100.00;58621.06;4998435;28;20238;-53
2022/09/25 03:58:28;;;;;;;5.63;5.13;;;;;;;-145.23;100.00;58621.06;4993028;28;20234;-50
2022/09/25 04:00:56;;;;;;;6.53;5.93;;;;;;;-145.23;100.00;58621.06;5002426;28;20338;-52
2022/09/25 04:03:23;;;;;;;7.15;5.07;;;;;;;-145.23;100.00;58621.06;4999537;28;20236;-51
2022/09/25 04:05:50;;;;;;;6.32;5.72;;;;;;;-145.23;100.00;58621.06;4989218;28;20916;-52
2022/09/25 04:08:18;;;;;;;7.07;6.38;;;;;;;-145.23;100.00;58621.06;4990775;28;20256;-50
2022/09/25 04:10:44;;;;;;;8.82;7.30;;;;;;;-145.23;100.00;58621.06;4992278;28;20233;-51
2022/09/25 04:13:11;;;;;;;7.13;5.43;;;;;;;-145.23;100.00;58621.06;5004087;28;20243;-52
2022/09/25 04:15:38;;;;;;;8.23;7.47;;;;;;;-145.23;100.00;58621.06;4998301;28;20727;-53
2022/09/25 04:18:05;;;;;;;7.43;6.43;;;;;;;-145.23;100.00;58621.06;4996150;28;20327;-51
2022/09/25 04:20:32;;;;;;;7.30;6.70;;;;;;;-145.23;100.00;58621.06;4995184;28;20766;-51
2022/09/25 04:22:58;;;;;;;8.18;7.32;;;;;;;-145.23;100.00;58621.06;4998995;28;20861;-52
2022/09/25 04:25:26;;;;;;;7.25;6.55;;;;;;;-145.23;100.00;58621.06;4998089;28;20712;-51
2022/09/25 04:27:54;;;;;;;6.40;5.90;;;;;;;-145.23;100.00;58621.06;4991311;28;20665;-52
2022/09/25 04:30:21;;;;;;;8.25;7.30;;;;;;;-145.23;100.00;58621.06;4993744;28;20340;-52
2022/09/25 04:35:32;;;;;;;8.88;6.93;;;;;;;-145.23;100.00;58621.06;5006177;28;20364;-51
2022/09/25 04:37:59;;;;;;;7.65;7.03;;;;;;;-145.23;100.00;58621.06;4996175;28;20261;-52
2022/09/25 04:40:26;;;;;;;8.73;6.68;;;;;;;-145.23;100.00;58621.06;4999823;28;20229;-58
2022/09/25 04:42:55;;;;;;;7.25;6.65;;;;;;;-145.23;100.00;58621.06;4995320;28;20879;-52
2022/09/25 04:45:22;;;;;;;6.93;6.22;;;;;;;-145.23;100.00;58621.06;4991362;28;20301;-51
2022/09/25 04:47:48;;;;;;;6.75;6.25;;;;;;;-145.23;100.00;58621.06;5016143;28;20714;-51
2022/09/25 04:50:15;;;;;;;9.02;6.60;;;;;;;-145.23;100.00;58621.06;5007988;28;20252;-51
2022/09/25 04:52:41;;;;;;;7.65;7.00;;;;;;;-145.23;100.00;58621.06;5000641;28;20230;-51
2022/09/25 04:55:08;;;;;;;8.18;7.32;;;;;;;-145.23;100.00;58621.06;4986836;28;20234;-50
2022/09/25 04:57:36;;;;;;;7.78;7.15;;;;;;;-145.23;100.00;58621.06;4988758;28;20260;-51
2022/09/25 05:00:05;;;;;;;7.47;6.85;;;;;;;-145.23;100.00;58621.06;4995169;28;20234;-52
2022/09/25 05:02:31;;;;;;;8.40;7.57;;;;;;;-145.23;100.00;58621.06;5001486;28;20288;-51
2022/09/25 05:04:58;;;;;;;7.63;6.93;;;;;;;-145.23;100.00;58621.06;4999406;28;20233;-51
2022/09/25 05:07:24;;;;;;;8.18;7.38;;;;;;;-145.23;100.00;58621.06;4992579;28;20241;-51
2022/09/25 05:09:51;;;;;;;7.60;6.90;;;;;;;-145.23;100.00;58621.06;5012204;28;20233;-50
2022/09/25 05:12:17;;;;;;;7.43;6.70;;;;;;;-145.23;100.00;58621.06;5002214;28;20237;-50
2022/09/25 05:14:45;;;;;;;8.18;6.85;;;;;;;-145.23;100.00;58621.06;5003163;28;20228;-51
2022/09/25 05:17:11;;;;;;;7.28;6.60;;;;;;;-145.23;100.00;58621.06;5006170;28;20875;-51
2022/09/25 05:19:39;;;;;;;9.90;7.13;;;;;;;-145.23;100.00;58621.06;4997153;28;20774;-51
2022/09/25 05:22:05;;;;;;;7.68;7.00;;;;;;;-145.23;100.00;58621.06;4997204;28;20693;-52
2022/09/25 05:24:32;;;;;;;8.07;7.10;;;;;;;-145.23;100.00;58621.06;4997256;28;20312;-51
2022/09/25 05:26:59;;;;;;;7.47;6.78;;;;;;;-145.23;100.00;58621.06;4994054;28;20727;-52
2022/09/25 05:29:25;;;;;;;8.55;7.85;;;;;;;-145.23;100.00;58621.06;4995369;28;20550;-53
2022/09/25 05:31:53;;;;;;;7.72;7.13;;;;;;;-145.23;100.00;58621.06;5014131;28;20233;-51
2022/09/25 05:34:19;;;;;;;7.93;6.85;;;;;;;-145.23;100.00;58621.06;4995437;28;20244;-52
2022/09/25 05:36:46;;;;;;;7.75;6.90;;;;;;;-145.23;100.00;58621.06;4990126;28;20249;-51
2022/09/25 05:39:12;;;;;;;7.68;7.07;;;;;;;-145.23;100.00;58621.06;5007715;28;20239;-51
2022/09/25 05:41:39;;;;;;;8.13;7.43;;;;;;;-145.23;100.00;58621.06;4996521;28;20244;-50
2022/09/25 05:44:08;;;;;;;7.68;6.90;;;;;;;-145.23;100.00;58621.06;4991326;28;20234;-51
2022/09/25 05:46:35;;;;;;;7.07;6.38;;;;;;;-145.23;100.00;58621.06;5001190;28;20233;-51
2022/09/25 05:49:03;;;;;;;8.63;6.93;;;;;;;-145.23;100.00;58621.06;4995582;28;20245;-51
2022/09/25 05:51:29;;;;;;;8.18;7.38;;;;;;;-145.23;100.00;58621.06;5001968;28;20228;-51
2022/09/25 05:53:56;;;;;;;9.13;8.23;;;;;;;-145.23;100.00;58621.06;5003604;28;20224;-52
2022/09/25 05:56:23;;;;;;;9.00;7.90;;;;;;;-145.23;100.00;58621.06;5014802;28;20740;-51
2022/09/25 05:58:50;;;;;;;6.75;6.15;;;;;;;-145.23;100.00;58621.06;4993271;28;20676;-53
2022/09/25 06:01:17;;;;;;;9.13;8.10;;;;;;;-145.23;100.00;58621.06;5006945;28;20232;-51
2022/09/25 06:03:43;;;;;;;8.25;7.55;;;;;;;-145.23;100.00;58621.06;5008925;28;20248;-52
2022/09/25 06:06:11;;;;;;;7.88;7.03;;;;;;;-145.23;100.00;58621.06;4988700;28;20242;-52
2022/09/25 06:08:38;;;;;;;8.55;7.75;;;;;;;-145.23;100.00;58621.06;4994055;28;20244;-52
2022/09/25 06:11:06;;;;;;;8.57;7.88;;;;;;;-145.23;100.00;58621.06;4990105;28;20252;-52
2022/09/25 06:13:35;;;;;;;8.18;7.38;;;;;;;-145.23;100.00;58621.06;4994590;28;20235;-52
2022/09/25 06:16:02;;;;;;;7.80;7.10;;;;;;;-145.23;100.00;58621.06;5008617;28;20238;-52
2022/09/25 06:18:29;;;;;;;7.57;6.47;;;;;;;-145.23;100.00;58621.06;4996478;28;20229;-52
2022/09/25 06:21:00;;;;;;;8.27;7.47;;;;;;;-145.23;100.00;58621.06;4991529;28;20225;-52
2022/09/25 06:23:28;;;;;;;9.07;8.18;;;;;;;-145.23;100.00;58621.06;4996045;28;20225;-51
2022/09/25 06:25:57;;;;;;;8.60;7.90;;;;;;;-145.23;100.00;58621.06;4995540;28;20224;-51
2022/09/25 06:28:24;;;;;;;8.85;8.00;;;;;;;-145.23;100.00;58621.06;5005228;28;20237;-51
2022/09/25 06:30:50;;;;;;;8.32;7.47;;;;;;;-145.23;100.00;58621.06;5008969;28;20716;-54
2022/09/25 06:33:16;;;;;;;8.23;7.53;;;;;;;-145.23;100.00;58621.06;4999383;28;20241;-51
2022/09/25 06:35:44;;;;;;;9.70;8.73;;;;;;;-145.23;100.00;58621.06;4998567;28;21280;-52
2022/09/25 06:38:11;;;;;;;10.27;9.30;;;;;;;-145.23;100.00;58621.06;4998811;28;20249;-51
2022/09/25 06:40:40;;;;;;;7.75;6.93;;;;;;;-145.23;100.00;58621.06;5005649;28;20233;-51
2022/09/25 06:43:14;;;;;;;9.55;8.57;;;;;;;-145.23;100.00;58621.06;5005750;28;20233;-51
2022/09/25 06:45:41;;;;;;;8.95;8.13;;;;;;;-145.23;100.00;58621.06;4993413;28;20309;-51
2022/09/25 06:48:10;;;;;;;8.15;7.43;;;;;;;-145.23;100.00;58621.06;4997677;28;20241;-51
2022/09/25 06:50:40;;;;;;;9.43;8.30;;;;;;;-145.23;100.00;58621.06;4990892;28;20232;-51
2022/09/25 06:53:07;;;;;;;10.27;8.85;;;;;;;-145.23;100.00;58621.06;4994566;28;20229;-52
2022/09/25 06:55:33;;;;;;;8.43;7.63;;;;;;;-145.23;100.00;58621.06;4996086;28;20299;-51
2022/09/25 06:58:02;;;;;;;9.98;9.02;;;;;;;-145.23;100.00;58621.06;4990426;28;20248;-52
2022/09/25 07:00:28;;;;;;;13.75;9.38;;;;;;;-145.23;100.00;58621.06;5006271;28;20317;-52
2022/09/25 07:05:38;;;;;;;8.48;7.68;;;;;;;-145.23;100.00;58621.06;4994264;28;20236;-52
2022/09/25 07:08:05;;;;;;;10.32;9.32;;;;;;;-145.23;100.00;58621.06;4997373;28;20253;-52
2022/09/25 07:10:32;;;;;;;9.75;8.43;;;;;;;-145.23;100.00;58621.06;4990188;28;20269;-52
2022/09/25 07:12:59;;;;;;;10.90;9.90;;;;;;;-145.23;100.00;58621.06;4985577;28;20234;-52
2022/09/25 07:15:27;;;;;;;8.73;7.93;;;;;;;-145.23;100.00;58621.06;4992062;28;20240;-51
2022/09/25 07:17:53;;;;;;;9.95;8.77;;;;;;;-145.23;100.00;58621.06;4988487;28;20234;-52
2022/09/25 07:20:21;;;;;;;9.68;8.75;;;;;;;-145.23;100.00;58621.06;4994457;28;20304;-53
2022/09/25 07:22:47;;;;;;;10.55;9.25;;;;;;;-145.23;100.00;58621.06;4989390;28;20226;-52
2022/09/25 07:25:14;;;;;;;10.63;9.60;;;;;;;-145.23;100.00;58621.06;4996906;28;20241;-52
2022/09/25 07:27:40;;;;;;;8.82;7.97;;;;;;;-145.23;100.00;58621.06;5010774;28;20241;-51
2022/09/25 07:30:08;;;;;;;10.77;9.80;;;;;;;-145.23;100.00;58621.06;4986473;28;20233;-52
2022/09/25 07:32:36;;;;;;;8.68;7.88;;;;;;;-145.23;100.00;58621.06;4989808;28;20230;-50
2022/09/25 07:35:03;;;;;;;9.15;8.25;;;;;;;-145.23;100.00;58621.06;4994574;28;20261;-51
2022/09/25 07:37:30;;;;;;;10.68;9.52;;;;;;;-145.23;100.00;58621.06;4993900;28;20237;-50
2022/09/25 07:39:58;;;;;;;11.40;10.32;;;;;;;-145.23;100.00;58621.06;4992423;28;20241;-51
2022/09/25 07:42:25;;;;;;;9.52;8.70;;;;;;;-145.23;100.00;58621.06;4990957;28;20237;-51
2022/09/25 07:44:51;;;;;;;16.20;10.45;;;;;;;-145.23;100.00;58621.06;4994148;28;20233;-51
2022/09/25 07:47:18;;;;;;;12.65;11.10;;;;;;;-145.23;100.00;58621.06;4993341;28;20658;-52
2022/09/25 07:49:46;;;;;;;9.57;8.77;;;;;;;-145.23;100.00;58621.06;4992393;28;20320;-51
2022/09/25 07:52:12;;;;;;;9.65;8.77;;;;;;;-145.23;100.00;58621.06;5005802;28;20239;-52
2022/09/25 07:54:39;;;;;;;9.38;8.40;;;;;;;-145.23;100.00;58621.06;4998903;28;20229;-51
2022/09/25 07:57:05;;;;;;;11.57;10.50;;;;;;;-145.23;100.00;58621.06;4998963;28;20235;-51
2022/09/25 07:59:32;;;;;;;11.38;9.55;;;;;;;-145.23;100.00;58621.06;4999543;28;20241;-52
2022/09/25 08:01:58;;;;;;;13.13;11.68;;;;;;;-145.23;100.00;58621.06;5002420;28;20229;-52
2022/09/25 08:04:25;;;;;;;12.18;10.48;;;;;;;-145.23;100.00;58621.06;5000011;28;20245;-52
2022/09/25 08:06:52;;;;;;;10.65;9.65;;;;;;;-145.23;100.00;58621.06;5003920;28;20236;-51
2022/09/25 08:09:19;;;;;;;11.50;10.48;;;;;;;-145.23;100.00;58621.06;4988731;28;20261;-51
2022/09/25 08:11:45;;;;;;;12.75;10.27;;;;;;;-145.23;100.00;58621.06;5010260;28;20226;-52
2022/09/25 08:14:14;;;;;;;11.25;10.15;;;;;;;-145.23;100.00;58621.06;4987567;28;20252;-51
2022/09/25 08:16:41;;;;;;;10.25;9.23;;;;;;;-145.23;100.00;58621.06;5004036;28;20233;-51
2022/09/25 08:19:07;;;;;;;10.15;9.25;;;;;;;-145.23;100.00;58621.06;4998878;28;20241;-52
2022/09/25 08:21:34;;;;;;;12.80;10.93;;;;;;;-145.23;100.00;58621.06;4999655;28;20232;-51
2022/09/25 08:24:02;;;;;;;11.05;9.95;;;;;;;-145.23;100.00;58621.06;5005359;28;20712;-51
2022/09/25 08:26:30;;;;;;;11.40;10.18;;;;;;;-145.23;100.00;58621.06;4991454;28;20365;-52
2022/09/25 08:28:58;;;;;;;10.20;9.27;;;;;;;-145.23;100.00;58621.06;4988602;28;20250;-52
2022/09/25 08:31:24;;;;;;;11.23;10.23;;;;;;;-145.23;100.00;58621.06;4996879;28;20292;-52
2022/09/25 08:33:51;;;;;;;9.60;8.65;;;;;;;-145.23;100.00;58621.06;4987410;28;20252;-51
2022/09/25 08:36:18;;;;;;;12.48;10.73;;;;;;;-145.23;100.00;58621.06;4994294;28;20973;-50
2022/09/25 08:38:45;;;;;;;11.50;9.35;;;;;;;-145.23;100.00;58621.06;4991112;28;20244;-51
2022/09/25 08:41:16;;;;;;;11.02;9.73;;;;;;;-145.23;100.00;58621.06;4993593;28;20225;-50
2022/09/25 08:43:55;;;;;;;9.68;8.68;;;;;;;-145.23;100.00;58621.06;4992516;28;20630;-51
2022/09/25 08:49:10;;;;;;;10.70;9.57;;;;;;;-145.23;100.00;58621.06;4992477;28;20256;-57
2022/09/25 08:51:39;;;;;;;11.48;10.40;;;;;;;-145.23;100.00;58621.06;4989702;28;20232;-51
2022/09/25 08:54:06;;;;;;;11.35;9.07;;;;;;;-145.23;100.00;58621.06;4993509;28;20248;-51
2022/09/25 08:56:35;;;;;;;10.50;9.57;;;;;;;-145.23;100.00;58621.06;4996760;28;20599;-51
2022/09/25 08:59:05;;;;;;;11.88;10.77;;;;;;;-145.23;100.00;58621.06;4999971;28;20657;-53
2022/09/25 09:01:42;;;;;;;9.98;8.98;;;;;;;-145.23;100.00;58621.06;4997006;28;20226;-51
2022/09/25 09:04:14;;;;;;;10.27;9.35;;;;;;;-145.23;100.00;58621.06;4998350;28;20339;-50
2022/09/25 09:06:41;;;;;;;9.70;8.85;;;;;;;-145.23;100.00;58621.06;4993353;28;20234;-52
2022/09/25 09:09:13;;;;;;;10.88;9.77;;;;;;;-145.23;100.00;58621.06;4993302;28;20241;-51
2022/09/25 09:11:44;;;;;;;11.07;9.93;;;;;;;-145.23;100.00;58621.06;4993521;28;20233;-52
2022/09/25 09:14:15;;;;;;;10.32;9.43;;;;;;;-145.23;100.00;58621.06;4997077;28;20233;-52
2022/09/25 09:16:44;;;;;;;11.85;10.82;;;;;;;-145.23;100.00;58621.06;4994516;28;20233;-53
2022/09/25 09:19:12;;;;;;;11.48;10.38;;;;;;;-145.23;100.00;58621.06;4998056;28;20861;-51
2022/09/25 09:21:43;;;;;;;11.95;10.63;;;;;;;-145.23;100.00;58621.06;4993375;28;20241;-52
2022/09/25 09:24:15;;;;;;;10.27;9.25;;;;;;;-145.23;100.00;58621.06;4994277;28;20265;-52
2022/09/25 09:26:57;;;;;;;11.88;10.77;;;;;;;-145.23;100.00;58621.06;4994627;28;20253;-53
2022/09/25 09:29:42;;;;;;;10.70;9.45;;;;;;;-145.23;100.00;58621.06;4993146;28;20229;-51
2022/09/25 09:32:34;;;;;;;12.07;10.82;;;;;;;-145.23;100.00;58621.06;4995776;28;20222;-50
2022/09/25 09:35:07;;;;;;;12.65;11.55;;;;;;;-145.23;100.00;58621.06;4999971;28;20238;-53
2022/09/25 09:37:48;;;;;;;9.70;8.80;;;;;;;-145.23;100.00;58621.06;4998426;28;20233;-53
2022/09/25 09:40:36;;;;;;;9.98;9.10;;;;;;;-145.23;100.00;58621.06;4993404;28;20331;-50
2022/09/25 09:43:12;;;;;;;11.68;10.68;;;;;;;-145.23;100.00;58621.06;4995319;28;20230;-51
2022/09/25 09:45:46;;;;;;;11.93;10.73;;;;;;;-145.23;100.00;58621.06;4994660;28;20248;-51
2022/09/25 09:48:16;;;;;;;9.93;9.00;;;;;;;-145.23;100.00;58621.06;4994225;28;20238;-51
2022/09/25 09:50:47;;;;;;;10.95;9.85;;;;;;;-145.23;100.00;58621.06;4989334;28;20245;-53
2022/09/25 09:53:22;;;;;;;10.98;10.00;;;;;;;-145.23;100.00;58621.06;4994397;28;20255;-50
2022/09/25 09:55:51;;;;;;;11.52;10.30;;;;;;;-145.23;100.00;58621.06;4995882;28;20229;-51
2022/09/25 09:58:21;;;;;;;13.45;11.30;;;;;;;-145.23;100.00;58621.06;4996215;28;20673;-51
2022/09/25 10:00:49;;;;;;;11.23;10.27;;;;;;;-145.23;100.00;58621.06;4997015;28;20768;-51
2022/09/25 10:03:18;;;;;;;12.02;10.82;;;;;;;-145.23;100.00;58621.06;4992620;28;20236;-51
2022/09/25 10:05:47;;;;;;;13.30;11.23;;;;;;;-145.23;100.00;58621.06;4998337;28;20654;-51
2022/09/25 10:08:13;;;;;;;10.35;9.30;;;;;;;-145.23;100.00;58621.06;4994922;28;20245;-51
2022/09/25 10:10:42;;;;;;;10.50;9.45;;;;;;;-145.23;100.00;58621.06;4996373;28;22567;-52
2022/09/25 10:13:14;;;;;;;9.85;8.85;;;;;;;-145.23;100.00;58621.06;4991973;28;20229;-50
2022/09/25 10:15:47;;;;;;;9.95;8.95;;;;;;;-145.23;100.00;58621.06;4994767;28;20237;-51
2022/09/25 10:18:14;;;;;;;11.07;9.98;;;;;;;-145.23;100.00;58621.06;4998731;28;20249;-51
2022/09/25 10:20:42;;;;;;;11.20;10.02;;;;;;;-145.23;100.00;58621.06;4992461;28;20716;-51
2022/09/25 10:23:19;;;;;;;10.45;9.32;;;;;;;-145.23;100.00;58621.06;4993151;28;20223;-52
2022/09/25 10:25:46;;;;;;;8.75;7.93;;;;;;;-145.23;100.00;58621.06;4991637;28;20240;-52
2022/09/25 10:28:25;;;;;;;8.73;7.80;;;;;;;-145.23;100.00;58621.06;4991858;28;20247;-52
2022/09/25 10:30:54;;;;;;;9.95;8.60;;;;;;;-145.23;100.00;58621.06;4993736;28;20246;-52
2022/09/25 10:33:22;;;;;;;8.15;7.35;;;;;;;-145.23;100.00;58621.06;4993946;28;20232;-52
2022/09/25 10:35:49;;;;;;;7.95;7.25;;;;;;;-145.23;100.00;58621.06;4994660;28;20241;-51
2022/09/25 10:38:28;;;;;;;8.45;7.57;;;;;;;-145.23;100.00;58621.06;4989932;28;20794;-51
2022/09/25 10:41:01;;;;;;;8.40;7.60;;;;;;;-145.23;100.00;58621.06;4988181;28;20762;-52
2022/09/25 10:43:27;;;;;;;9.27;7.55;;;;;;;-145.23;100.00;58621.06;4991848;28;20233;-56
2022/09/25 10:46:07;;;;;;;8.52;7.72;;;;;;;-145.23;100.00;58621.06;4975426;28;20225;-53
2022/09/25 10:51:20;;;;;;;8.50;7.55;;;;;;;-145.23;100.00;58621.06;4985731;28;20241;-52
2022/09/25 10:53:47;;;;;;;8.38;7.57;;;;;;;-145.23;100.00;58621.06;4993134;28;20311;-51
2022/09/25 10:56:17;;;;;;;7.47;5.95;;;;;;;-145.23;100.00;58621.06;4989443;28;20237;-52
2022/09/25 10:58:46;;;;;;;8.35;7.55;;;;;;;-145.23;100.00;58621.06;4990934;28;20237;-52
2022/09/25 11:01:15;;;;;;;6.75;6.15;;;;;;;-145.23;100.00;58621.06;4985420;28;20229;-51
2022/09/25 11:03:47;;;;;;;7.40;6.70;;;;;;;-145.23;100.00;58621.06;4982553;28;20318;-50
2022/09/25 11:06:21;;;;;;;7.28;6.57;;;;;;;-145.23;100.00;58621.06;4987974;28;20252;-51
2022/09/25 11:08:50;;;;;;;7.28;6.68;;;;;;;-145.23;100.00;58621.06;4986379;28;20241;-52
2022/09/25 11:11:25;;;;;;;7.10;6.15;;;;;;;-145.23;100.00;58621.06;4994456;28;20319;-52
2022/09/25 11:13:54;;;;;;;7.38;6.70;;;;;;;-145.23;100.00;58621.06;4991021;28;20654;-54
2022/09/25 11:16:22;;;;;;;8.10;7.40;;;;;;;-145.23;100.00;58621.06;4987062;28;20220;-51
2022/09/25 11:18:50;;;;;;;6.65;6.10;;;;;;;-145.23;100.00;58621.06;4993621;28;20246;-51
2022/09/25 11:21:22;;;;;;;7.30;6.60;;;;;;;-145.23;100.00;58621.06;4988337;28;20233;-52
2022/09/25 11:24:01;;;;;;;7.53;6.93;;;;;;;-145.23;100.00;58621.06;4985392;28;20303;-53
2022/09/25 11:26:31;;;;;;;7.63;7.03;;;;;;;-145.23;100.00;58621.06;4983173;28;20246;-51
2022/09/25 11:29:03;;;;;;;7.25;6.57;;;;;;;-145.23;100.00;58621.06;4991140;28;20332;-51